Time;durP1;ratioP1;P1;durP2;ratioP2;P2;SDS_P1;SDS_P2;PMS_P1;PMS_P2;Temp;Humidity;BMP_temperature;BMP_pressure;BME280_temperature;BME280_humidity;BME280_pressure;Samples;Min_cycle;Max_cycle;Signal;HPM_P1;HPM_P2
2022/05/19 00:01:30;;;;;;;;;;;;;;;-142.75;100.00;76751.41;5049923;28;19912;-67
2022/05/19 00:03:55;;;;;;;;;;;;;;;-142.75;100.00;76755.34;5049736;28;19939;-67
2022/05/19 00:06:20;;;;;;;;;;;;;;;-142.75;100.00;76751.41;5050608;28;19916;-67
2022/05/19 00:08:46;;;;;;;;;;;;;;;-142.75;100.00;76755.34;5050065;28;19913;-68
2022/05/19 00:11:12;;;;;;;;;;;;;;;-142.75;100.00;76761.25;5049911;28;19921;-67
2022/05/19 00:13:38;;;;;;;;;;;;;;;-142.75;100.00;76765.19;5049982;28;19923;-67
2022/05/19 00:16:05;;;;;;;;;;;;;;;-142.75;100.00;76763.22;5031981;28;19913;-66
2022/05/19 00:18:31;;;;;;;;;;;;;;;-142.75;100.00;76769.13;5049459;28;20320;-67
2022/05/19 00:20:56;;;;;;;;;;;;;;;-142.75;100.00;76767.16;5050092;28;19912;-67
2022/05/19 00:23:21;;;;;;;;;;;;;;;-142.75;100.00;76765.19;5050219;28;19947;-67
2022/05/19 00:25:47;;;;;;;;;;;;;;;-142.75;100.00;76755.34;5049988;28;19913;-67
2022/05/19 00:28:12;;;;;;;;;;;;;;;-142.75;100.00;76753.38;5049615;28;19928;-67
2022/05/19 00:30:38;;;;;;;;;;;;;;;-142.75;100.00;76745.50;5049896;28;20328;-67
2022/05/19 00:33:03;;;;;;;;;;;;;;;-142.75;100.00;76739.59;5049668;28;19912;-67
2022/05/19 00:35:28;;;;;;;;;;;;;;;-142.75;100.00;76739.59;5049812;28;19921;-67
2022/05/19 00:37:53;;;;;;;;;;;;;;;-142.75;100.00;76729.75;5050374;28;19913;-67
2022/05/19 00:40:20;;;;;;;;;;;;;;;-142.75;100.00;76721.88;5031843;28;20004;-67
2022/05/19 00:42:45;;;;;;;;;;;;;;;-142.75;100.00;76719.91;5049602;28;20378;-67
2022/05/19 00:45:15;;;;;;;;;;;;;;;-142.75;100.00;76717.94;5053532;28;19913;-67
2022/05/19 00:48:00;;;;;;;;;;;;;;;-142.75;100.00;76712.03;5053590;28;20313;-67
2022/05/19 00:50:28;;;;;;;;;;;;;;;-142.75;100.00;76710.06;5053880;28;19912;-67
2022/05/19 00:52:57;;;;;;;;;;;;;;;-142.75;100.00;76710.06;5053713;28;19912;-68
2022/05/19 00:55:27;;;;;;;;;;;;;;;-142.75;100.00;76708.09;5035697;28;20378;-67
2022/05/19 00:57:56;;;;;;;;;;;;;;;-142.75;100.00;76708.09;5053071;28;19913;-66
2022/05/19 01:00:22;;;;;;;;;;;;;;;-142.75;100.00;76702.19;5053301;28;20309;-67
2022/05/19 01:02:53;;;;;;;;;;;;;;;-142.75;100.00;76692.34;5053443;28;19916;-67
2022/05/19 01:05:22;;;;;;;;;;;;;;;-142.75;100.00;76696.28;5035645;28;19917;-67
2022/05/19 01:07:54;;;;;;;;;;;;;;;-142.75;100.00;76684.47;5053873;28;19927;-66
2022/05/19 01:10:20;;;;;;;;;;;;;;;-142.75;100.00;76674.63;5053355;28;20425;-67
2022/05/19 01:12:46;;;;;;;;;;;;;;;-142.75;100.00;76672.66;5053076;28;20000;-66
2022/05/19 01:15:12;;;;;;;;;;;;;;;-142.75;100.00;76668.72;5053417;28;19971;-67
2022/05/19 01:17:37;;;;;;;;;;;;;;;-142.75;100.00;76660.84;5053378;28;19913;-66
2022/05/19 01:20:07;;;;;;;;;;;;;;;-142.75;100.00;76652.97;5052703;28;19912;-67
2022/05/19 01:22:36;;;;;;;;;;;;;;;-142.75;100.00;76652.97;5053013;28;19967;-66
2022/05/19 01:25:07;;;;;;;;;;;;;;;-142.75;100.00;76649.03;5052852;28;20394;-67
2022/05/19 01:27:33;;;;;;;;;;;;;;;-142.75;100.00;76649.03;5052635;28;19919;-67
2022/05/19 01:29:58;;;;;;;;;;;;;;;-142.75;100.00;76643.13;5052610;28;20391;-67
2022/05/19 01:32:25;;;;;;;;;;;;;;;-142.75;100.00;76643.13;5034938;28;19919;-66
2022/05/19 01:34:50;;;;;;;;;;;;;;;-142.75;100.00;76635.25;5052647;28;20011;-66
2022/05/19 01:37:16;;;;;;;;;;;;;;;-142.75;100.00;76641.16;5053501;28;20055;-67
2022/05/19 01:39:44;;;;;;;;;;;;;;;-142.75;100.00;76639.19;5033579;28;19924;-66
2022/05/19 01:42:18;;;;;;;;;;;;;;;-142.75;100.00;76637.22;5052484;28;20274;-67
2022/05/19 01:45:02;;;;;;;;;;;;;;;-142.75;100.00;76629.34;5052772;28;19913;-67
2022/05/19 01:47:46;;;;;;;;;;;;;;;-142.75;100.00;76625.41;5052419;28;19920;-67
2022/05/19 01:50:20;;;;;;;;;;;;;;;-142.75;100.00;76627.38;5052324;28;19935;-66
2022/05/19 01:53:03;;;;;;;;;;;;;;;-142.75;100.00;76627.38;5052464;28;19918;-66
2022/05/19 01:55:44;;;;;;;;;;;;;;;-142.75;100.00;76621.47;5051240;28;19939;-67
2022/05/19 01:58:16;;;;;;;;;;;;;;;-142.75;100.00;76627.38;5052129;28;19966;-66
2022/05/19 02:00:42;;;;;;;;;;;;;;;-142.75;100.00;76627.38;5052062;28;19960;-67
2022/05/19 02:03:19;;;;;;;;;;;;;;;-142.75;100.00;76658.88;5052542;28;20348;-66
2022/05/19 02:05:54;;;;;;;;;;;;;;;-142.75;100.00;76654.94;5052194;28;19920;-67
2022/05/19 02:08:21;;;;;;;;;;;;;;;-142.75;100.00;76662.81;5052408;28;20374;-66
2022/05/19 02:10:49;;;;;;;;;;;;;;;-142.75;100.00;76654.94;5034275;28;20325;-65
2022/05/19 02:13:15;;;;;;;;;;;;;;;-142.75;100.00;76649.03;5033995;28;19920;-65
2022/05/19 02:15:43;;;;;;;;;;;;;;;-142.75;100.00;76637.22;5052248;28;19970;-65
2022/05/19 02:18:08;;;;;;;;;;;;;;;-142.75;100.00;76649.03;5051186;28;19923;-65
2022/05/19 02:20:33;;;;;;;;;;;;;;;-142.75;100.00;76694.31;5051796;28;20007;-65
2022/05/19 02:22:59;;;;;;;;;;;;;;;-142.75;100.00;76708.09;5052042;28;19955;-65
2022/05/19 02:25:26;;;;;;;;;;;;;;;-142.75;100.00;76692.34;5051927;28;19920;-65
2022/05/19 02:27:59;;;;;;;;;;;;;;;-142.75;100.00;76688.41;5051250;28;19912;-65
2022/05/19 02:30:26;;;;;;;;;;;;;;;-142.75;100.00;76688.41;5051973;28;19928;-65
2022/05/19 02:32:51;;;;;;;;;;;;;;;-142.75;100.00;76684.47;5051600;28;19920;-65
2022/05/19 02:35:17;;;;;;;;;;;;;;;-142.75;100.00;76692.34;5051674;28;19917;-65
2022/05/19 02:37:42;;;;;;;;;;;;;;;-142.75;100.00;76694.31;5052047;28;20031;-65
2022/05/19 02:40:08;;;;;;;;;;;;;;;-142.75;100.00;76676.59;5051494;28;19912;-65
2022/05/19 02:42:34;;;;;;;;;;;;;;;-142.75;100.00;76662.81;5033915;28;20298;-65
2022/05/19 02:44:59;;;;;;;;;;;;;;;-142.75;100.00;76652.97;5051479;28;19913;-65
2022/05/19 02:47:24;;;;;;;;;;;;;;;-142.75;100.00;76652.97;5051279;28;20433;-65
2022/05/19 02:49:49;;;;;;;;;;;;;;;-142.75;100.00;76647.06;5051164;28;20007;-65
2022/05/19 02:52:14;;;;;;;;;;;;;;;-142.75;100.00;76668.72;5051295;28;19913;-65
2022/05/19 02:54:39;;;;;;;;;;;;;;;-142.75;100.00;76660.84;5051266;28;20374;-66
2022/05/19 02:57:05;;;;;;;;;;;;;;;-142.75;100.00;76649.03;5051203;28;19927;-65
2022/05/19 02:59:30;;;;;;;;;;;;;;;-142.75;100.00;76658.88;5050783;28;20321;-67
2022/05/19 03:01:55;;;;;;;;;;;;;;;-142.75;100.00;76670.69;5051198;28;19947;-67
2022/05/19 03:04:21;;;;;;;;;;;;;;;-142.75;100.00;76678.56;5051073;28;19913;-66
2022/05/19 03:06:46;;;;;;;;;;;;;;;-142.75;100.00;76670.69;5050892;28;20374;-66
2022/05/19 03:09:11;;;;;;;;;;;;;;;-142.75;100.00;76676.59;5062995;22;19991;-69
2022/05/19 03:11:37;;;;;;;;;;;;;;;-142.75;100.00;76666.75;5049828;28;19953;-68
2022/05/19 03:14:02;;;;;;;;;;;;;;;-142.75;100.00;76660.84;5050069;28;20385;-69
2022/05/19 03:16:27;;;;;;;;;;;;;;;-142.75;100.00;76651.00;5049616;28;19956;-68
2022/05/19 03:18:52;;;;;;;;;;;;;;;-142.75;100.00;76652.97;5050575;28;19952;-68
2022/05/19 03:21:18;;;;;;;;;;;;;;;-142.75;100.00;76637.22;5050685;28;20007;-68
2022/05/19 03:23:43;;;;;;;;;;;;;;;-142.75;100.00;76635.25;5050883;28;19912;-68
2022/05/19 03:26:08;;;;;;;;;;;;;;;-142.75;100.00;76633.28;5050753;28;20057;-69
2022/05/19 03:28:34;;;;;;;;;;;;;;;-142.75;100.00;76621.47;5050063;28;19923;-68
2022/05/19 03:31:00;;;;;;;;;;;;;;;-142.75;100.00;76635.25;5050605;28;19913;-68
2022/05/19 03:33:25;;;;;;;;;;;;;;;-142.75;100.00;76649.03;5049309;28;19913;-69
2022/05/19 03:35:59;;;;;;;;;;;;;;;-142.75;100.00;76639.19;5050736;28;20001;-69
2022/05/19 03:38:25;;;;;;;;;;;;;;;-142.75;100.00;76649.03;5050759;28;19917;-68
2022/05/19 03:40:50;;;;;;;;;;;;;;;-142.75;100.00;76652.97;5050490;28;20019;-68
2022/05/19 03:43:15;;;;;;;;;;;;;;;-142.75;100.00;76651.00;5048943;28;20345;-68
2022/05/19 03:45:40;;;;;;;;;;;;;;;-142.75;100.00;76668.72;5050407;28;19928;-68
2022/05/19 03:48:06;;;;;;;;;;;;;;;-142.75;100.00;76688.41;5049782;28;19999;-68
2022/05/19 03:50:31;;;;;;;;;;;;;;;-142.75;100.00;76708.09;5050306;28;19983;-68
2022/05/19 03:52:56;;;;;;;;;;;;;;;-142.75;100.00;76727.78;5048966;28;20365;-69
2022/05/19 03:55:22;;;;;;;;;;;;;;;-142.75;100.00;76735.66;5050255;28;20274;-69
2022/05/19 03:57:47;;;;;;;;;;;;;;;-142.75;100.00;76737.63;5049685;28;19913;-67
2022/05/19 04:00:13;;;;;;;;;;;;;;;-142.75;100.00;76755.34;5050032;28;19913;-68
2022/05/19 04:02:38;;;;;;;;;;;;;;;-142.75;100.00;76751.41;5050067;28;19999;-69
2022/05/19 04:05:04;;;;;;;;;;;;;;;-142.75;100.00;76735.66;5050070;28;20596;-70
2022/05/19 04:07:29;;;;;;;;;;;;;;;-142.75;100.00;76743.53;5049424;28;19912;-69
2022/05/19 04:09:54;;;;;;;;;;;;;;;-142.75;100.00;76727.78;5049667;28;19955;-68
2022/05/19 04:12:20;;;;;;;;;;;;;;;-142.75;100.00;76708.09;5049599;28;20026;-68
2022/05/19 04:14:45;;;;;;;;;;;;;;;-142.75;100.00;76696.28;5049783;28;19912;-68
2022/05/19 04:17:11;;;;;;;;;;;;;;;-142.75;100.00;76692.34;5049940;28;19912;-68
2022/05/19 04:19:36;;;;;;;;;;;;;;;-142.75;100.00;76686.44;5047674;28;19913;-71
2022/05/19 04:22:01;;;;;;;;;;;;;;;-142.75;100.00;76668.72;5048588;28;20369;-71
2022/05/19 04:24:26;;;;;;;;;;;;;;;-142.75;100.00;76664.78;5049588;28;20321;-71
2022/05/19 04:26:52;;;;;;;;;;;;;;;-142.75;100.00;76676.59;5049627;28;19958;-69
2022/05/19 04:29:17;;;;;;;;;;;;;;;-142.75;100.00;76684.47;5049378;28;19920;-71
2022/05/19 04:31:42;;;;;;;;;;;;;;;-142.75;100.00;76692.34;5049616;28;19924;-71
2022/05/19 04:34:07;;;;;;;;;;;;;;;-142.75;100.00;76700.22;5048659;28;19999;-71
2022/05/19 04:36:32;;;;;;;;;;;;;;;-142.75;100.00;76696.28;5050282;28;19994;-71
2022/05/19 04:38:58;;;;;;;;;;;;;;;-142.75;100.00;76704.16;5051045;28;20388;-71
2022/05/19 04:41:23;;;;;;;;;;;;;;;-142.75;100.00;76700.22;5050836;28;20389;-70
2022/05/19 04:43:48;;;;;;;;;;;;;;;-142.75;100.00;76696.28;5050889;28;20340;-71
2022/05/19 04:46:13;;;;;;;;;;;;;;;-142.75;100.00;76696.28;5051020;28;19924;-71
2022/05/19 04:48:38;;;;;;;;;;;;;;;-142.75;100.00;76698.25;5050527;28;19920;-71
2022/05/19 04:51:04;;;;;;;;;;;;;;;-142.75;100.00;76690.38;5050878;28;19916;-71
2022/05/19 04:53:29;;;;;;;;;;;;;;;-142.75;100.00;76682.50;5050810;28;20003;-71
2022/05/19 04:55:55;;;;;;;;;;;;;;;-142.75;100.00;76668.72;5049536;28;19917;-72
2022/05/19 04:58:20;;;;;;;;;;;;;;;-142.75;100.00;76654.94;5049004;28;19920;-71
2022/05/19 05:00:47;;;;;;;;;;;;;;;-142.75;100.00;76649.03;5050791;28;19912;-71
2022/05/19 05:03:12;;;;;;;;;;;;;;;-142.75;100.00;76641.16;5049426;28;19920;-71
2022/05/19 05:05:37;;;;;;;;;;;;;;;-142.75;100.00;76629.34;5050890;28;19912;-72
2022/05/19 05:08:02;;;;;;;;;;;;;;;-142.75;100.00;76625.41;5050244;28;19974;-71
2022/05/19 05:10:27;;;;;;;;;;;;;;;-142.75;100.00;76617.53;5050848;28;19912;-72
2022/05/19 05:12:53;;;;;;;;;;;;;;;-142.75;100.00;76611.63;5050437;28;19923;-71
2022/05/19 05:15:18;;;;;;;;;;;;;;;-142.75;100.00;76613.59;5046235;28;19955;-70
2022/05/19 05:17:43;;;;;;;;;;;;;;;-142.75;100.00;76605.72;5030549;28;19992;-68
2022/05/19 05:20:11;;;;;;;;;;;;;;;-142.75;100.00;76609.66;5030551;28;20005;-70
2022/05/19 05:22:36;;;;;;;;;;;;;;;-142.75;100.00;76599.81;5030856;28;19924;-69
2022/05/19 05:25:06;;;;;;;;;;;;;;;-142.75;100.00;76597.84;5030650;28;19913;-70
2022/05/19 05:27:32;;;;;;;;;;;;;;;-142.75;100.00;76582.09;5030594;28;19964;-70
2022/05/19 05:29:57;;;;;;;;;;;;;;;-142.75;100.00;76570.28;5031868;28;19963;-70
2022/05/19 05:32:22;;;;;;;;;;;;;;;-142.75;100.00;76566.34;5033429;28;20043;-69
2022/05/19 05:34:47;;;;;;;;;;;;;;;-142.75;100.00;76568.31;5032112;28;20298;-70
2022/05/19 05:37:13;;;;;;;;;;;;;;;-142.75;100.00;76568.31;5033296;28;19960;-70
2022/05/19 05:39:38;;;;;;;;;;;;;;;-142.75;100.00;76568.31;5032844;28;20365;-69
2022/05/19 05:42:04;;;;;;;;;;;;;;;-142.75;100.00;76566.34;5049262;28;19912;-69
2022/05/19 05:44:30;;;;;;;;;;;;;;;-142.75;100.00;76560.44;5053043;28;19912;-69
2022/05/19 05:46:55;;;;;;;;;;;;;;;-142.75;100.00;76564.38;5053005;28;20003;-69
2022/05/19 05:49:20;;;;;;;;;;;;;;;-142.75;100.00;76564.38;5052648;28;19920;-69
2022/05/19 05:51:46;;;;;;;;;;;;;;;-142.75;100.00;76562.41;5051603;28;19975;-69
2022/05/19 05:54:12;;;;;;;;;;;;;;;-142.75;100.00;76550.59;5053108;28;19916;-69
2022/05/19 05:56:37;;;;;;;;;;;;;;;-142.75;100.00;76542.72;5051438;28;20293;-69
2022/05/19 05:59:02;;;;;;;;;;;;;;;-142.75;100.00;76538.78;5052371;28;19919;-69
2022/05/19 06:01:27;;;;;;;;;;;;;;;-142.75;100.00;76532.88;5052613;28;19928;-69
2022/05/19 06:03:52;;;;;;;;;;;;;;;-142.75;100.00;76517.16;5036809;28;19919;-69
2022/05/19 06:06:18;;;;;;;;;;;;;;;-142.75;100.00;76515.19;5031516;28;19931;-69
2022/05/19 06:08:43;;;;;;;;;;;;;;;-142.75;100.00;76501.41;5050864;28;19912;-69
2022/05/19 06:11:08;;;;;;;;;;;;;;;-142.75;100.00;76511.25;5052377;28;19917;-70
2022/05/19 06:13:33;;;;;;;;;;;;;;;-142.75;100.00;76507.31;5052723;28;19916;-69
2022/05/19 06:15:59;;;;;;;;;;;;;;;-142.75;100.00;76513.22;5052611;28;20007;-69
2022/05/19 06:18:25;;;;;;;;;;;;;;;-142.75;100.00;76521.09;5051798;28;19923;-69
2022/05/19 06:20:51;;;;;;;;;;;;;;;-142.75;100.00;76515.19;5052559;28;19916;-69
2022/05/19 06:23:17;;;;;;;;;;;;;;;-142.75;100.00;76515.19;5052299;28;20329;-69
2022/05/19 06:25:43;;;;;;;;;;;;;;;-142.75;100.00;76523.06;5050945;28;19918;-69
2022/05/19 06:28:09;;;;;;;;;;;;;;;-142.75;100.00;76521.09;5052033;28;19912;-69
2022/05/19 06:30:34;;;;;;;;;;;;;;;-142.75;100.00;76511.25;5052172;28;20696;-69
2022/05/19 06:32:59;;;;;;;;;;;;;;;-142.75;100.00;76495.50;5051746;28;19924;-69
2022/05/19 06:35:27;;;;;;;;;;;;;;;-142.75;100.00;76487.63;5052019;28;19958;-69
2022/05/19 06:37:53;;;;;;;;;;;;;;;-142.75;100.00;76479.75;5051543;28;19975;-69
2022/05/19 06:40:18;;;;;;;;;;;;;;;-142.75;100.00;76471.88;5052004;28;20003;-70
2022/05/19 06:42:43;;;;;;;;;;;;;;;-142.75;100.00;76464.00;5052262;28;20449;-71
2022/05/19 06:45:09;;;;;;;;;;;;;;;-142.75;100.00;76471.88;5051454;28;20282;-70
2022/05/19 06:47:36;;;;;;;;;;;;;;;-142.75;100.00;76477.78;5052806;28;20306;-70
2022/05/19 06:50:02;;;;;;;;;;;;;;;-142.75;100.00;76471.88;5052555;28;19912;-71
2022/05/19 06:52:28;;;;;;;;;;;;;;;-142.75;100.00;76448.25;5052840;28;19924;-71
2022/05/19 06:54:56;;;;;;;;;;;;;;;-142.75;100.00;76442.34;5050825;28;19912;-69
2022/05/19 06:57:22;;;;;;;;;;;;;;;-142.75;100.00;76432.50;5051730;28;19932;-70
2022/05/19 06:59:47;;;;;;;;;;;;;;;-142.75;100.00;76422.66;5051522;28;19973;-71
2022/05/19 07:02:13;;;;;;;;;;;;;;;-142.75;100.00;76416.75;5051680;28;19916;-71
2022/05/19 07:04:39;;;;;;;;;;;;;;;-142.75;100.00;76408.88;5051768;28;19971;-71
2022/05/19 07:07:05;;;;;;;;;;;;;;;-142.75;100.00;76401.00;5051870;28;19916;-72
2022/05/19 07:09:30;;;;;;;;;;;;;;;-142.75;100.00;76379.34;5050674;28;20294;-71
2022/05/19 07:11:56;;;;;;;;;;;;;;;-142.75;100.00;76361.63;5051672;28;19940;-69
2022/05/19 07:14:21;;;;;;;;;;;;;;;-142.75;100.00;76365.56;5051609;28;19948;-71
2022/05/19 07:16:48;;;;;;;;;;;;;;;-142.75;100.00;76353.78;5051723;28;19912;-71
2022/05/19 07:21:57;;;;;;;;;;;;;;;-142.75;100.00;76375.41;5052152;28;19934;-71
2022/05/19 07:24:23;;;;;;;;;;;;;;;-142.75;100.00;76383.28;5051192;28;20378;-70
2022/05/19 07:26:50;;;;;;;;;;;;;;;-142.75;100.00;76381.31;5051446;28;19966;-68
2022/05/19 07:29:15;;;;;;;;;;;;;;;-142.75;100.00;76369.50;5051157;28;19966;-68
2022/05/19 07:31:41;;;;;;;;;;;;;;;-142.75;100.00;76345.91;5050868;28;20340;-68
2022/05/19 07:34:07;;;;;;;;;;;;;;;-142.75;100.00;76326.22;5051457;28;20426;-68
2022/05/19 07:36:33;;;;;;;;;;;;;;;-142.75;100.00;76320.31;5032236;28;19920;-69
2022/05/19 07:38:59;;;;;;;;;;;;;;;-142.75;100.00;76326.22;5031501;28;19917;-68
2022/05/19 07:41:25;;;;;;;;;;;;;;;-142.75;100.00;76314.41;5030673;28;19916;-69
2022/05/19 07:43:52;;;;;;;;;;;;;;;-142.75;100.00;76322.28;5030582;28;19920;-68
2022/05/19 07:46:18;;;;;;;;;;;;;;;-142.75;100.00;76316.38;5031899;28;19917;-68
2022/05/19 07:48:43;;;;;;;;;;;;;;;-142.75;100.00;76318.34;5050100;28;19912;-66
2022/05/19 07:51:09;;;;;;;;;;;;;;;-142.75;100.00;76334.09;5051536;28;19919;-68
2022/05/19 07:53:34;;;;;;;;;;;;;;;-142.75;100.00;76345.91;5050790;28;19913;-67
2022/05/19 07:55:59;;;;;;;;;;;;;;;-142.75;100.00;76334.09;5051597;28;19916;-68
2022/05/19 07:58:24;;;;;;;;;;;;;;;-142.75;100.00;76334.09;5051111;28;20401;-68
2022/05/19 08:00:51;;;;;;;;;;;;;;;-142.75;100.00;76322.28;5051670;28;20290;-68
2022/05/19 08:03:17;;;;;;;;;;;;;;;-142.75;100.00;76302.59;5051510;28;19966;-67
2022/05/19 08:05:42;;;;;;;;;;;;;;;-142.75;100.00;76269.13;5051423;28;19912;-69
2022/05/19 08:08:07;;;;;;;;;;;;;;;-142.75;100.00;76249.44;5050931;28;20405;-68
2022/05/19 08:10:33;;;;;;;;;;;;;;;-142.75;100.00;76217.94;5051350;28;19919;-68
2022/05/19 08:15:42;;;;;;;;;;;;;;;-142.75;100.00;76156.94;5051352;28;20046;-67
2022/05/19 08:18:15;;;;;;;;;;;;;;;-142.75;100.00;76131.34;5050697;28;19966;-68
2022/05/19 08:20:42;;;;;;;;;;;;;;;-142.75;100.00;76109.69;5050046;28;20008;-68
2022/05/19 08:23:10;;;;;;;;;;;;;;;-142.75;100.00;76093.94;5051225;28;19913;-68
2022/05/19 08:25:36;;;;;;;;;;;;;;;-142.75;100.00;76099.84;5051184;28;19920;-68
2022/05/19 08:28:01;;;;;;;;;;;;;;;-142.75;100.00;76099.84;5050889;28;19919;-68
2022/05/19 08:30:26;;;;;;;;;;;;;;;-142.75;100.00;76095.91;5051094;28;19913;-68
2022/05/19 08:32:52;;;;;;;;;;;;;;;-142.75;100.00;76090.00;5050833;28;19916;-68
2022/05/19 08:35:17;;;;;;;;;;;;;;;-142.75;100.00;76086.06;5051464;28;19916;-69
2022/05/19 08:37:43;;;;;;;;;;;;;;;-142.75;100.00;76054.59;5050792;28;19913;-66
2022/05/19 08:40:09;;;;;;;;;;;;;;;-142.75;100.00;76005.38;5050993;28;19913;-69
2022/05/19 08:42:38;;;;;;;;;;;;;;;-142.75;100.00;75983.72;5051025;28;19917;-68
2022/05/19 08:45:05;;;;;;;;;;;;;;;-142.75;100.00;75960.13;5051033;28;20023;-68
2022/05/19 08:47:34;;;;;;;;;;;;;;;-142.75;100.00;75944.38;5050836;28;19913;-68
2022/05/19 08:50:01;;;;;;;;;;;;;;;-142.75;100.00;75962.09;5049484;28;20397;-69
2022/05/19 08:52:27;;;;;;;;;;;;;;;-142.75;100.00;75932.56;5050845;28;19962;-68
2022/05/19 08:54:54;;;;;;;;;;;;;;;-142.75;100.00;75893.19;5049644;28;19912;-69
2022/05/19 08:57:37;;;;;;;;;;;;;;;-142.75;100.00;75849.91;5050811;28;20451;-69
2022/05/19 09:00:11;;;;;;;;;;;;;;;-142.75;100.00;75849.91;5030609;28;19959;-69
2022/05/19 09:02:46;;;;;;;;;;;;;;;-142.75;100.00;75845.97;5049537;28;20047;-69
2022/05/19 09:05:28;;;;;;;;;;;;;;;-142.75;100.00;75806.59;5052976;28;20007;-69
2022/05/19 09:08:02;;;;;;;;;;;;;;;-142.75;100.00;75802.66;5054285;28;19913;-66
2022/05/19 09:10:42;;;;;;;;;;;;;;;-142.75;100.00;75794.78;5044043;22;20336;-67
2022/05/19 09:13:08;;;;;;;;;;;;;;;-142.75;100.00;75806.59;5052754;28;19916;-67
2022/05/19 09:15:35;;;;;;;;;;;;;;;-142.75;100.00;75802.66;5054634;28;20301;-67
2022/05/19 09:18:00;;;;;;;;;;;;;;;-142.75;100.00;75834.16;5054213;28;19920;-67
2022/05/19 09:20:31;;;;;;;;;;;;;;;-142.75;100.00;75851.88;5054373;28;19912;-67
2022/05/19 09:23:01;;;;;;;;;;;;;;;-142.75;100.00;75863.66;5054503;28;19919;-68
2022/05/19 09:25:27;;;;;;;;;;;;;;;-142.75;100.00;75865.63;5036612;28;19972;-68
2022/05/19 09:27:53;;;;;;;;;;;;;;;-142.75;100.00;75851.88;5054083;28;20403;-67
2022/05/19 09:30:30;;;;;;;;;;;;;;;-142.75;100.00;75836.13;5054431;28;19924;-68
2022/05/19 09:32:57;;;;;;;;;;;;;;;-142.75;100.00;75806.59;5054115;28;19928;-68
2022/05/19 09:35:27;;;;;;;;;;;;;;;-142.75;100.00;75798.72;5054229;28;19912;-68
2022/05/19 09:38:13;;;;;;;;;;;;;;;-142.75;100.00;75790.84;5053856;28;19962;-67
2022/05/19 09:40:44;;;;;;;;;;;;;;;-142.75;100.00;75763.28;5054025;28;20420;-68
2022/05/19 09:43:09;;;;;;;;;;;;;;;-142.75;100.00;75779.03;5054135;28;19921;-68
2022/05/19 09:45:38;;;;;;;;;;;;;;;-142.75;100.00;75741.66;5054127;28;20382;-68
2022/05/19 09:48:05;;;;;;;;;;;;;;;-142.75;100.00;75731.81;5053665;28;19919;-67
2022/05/19 09:50:35;;;;;;;;;;;;;;;-142.75;100.00;75688.50;5053815;28;20027;-68
2022/05/19 09:53:02;;;;;;;;;;;;;;;-142.75;100.00;75657.03;5036012;28;19962;-68
2022/05/19 09:55:28;;;;;;;;;;;;;;;-142.75;100.00;75621.59;5035927;28;20002;-68
2022/05/19 09:57:53;;;;;;;;;;;;;;;-142.75;100.00;75594.06;5053564;28;19952;-67
2022/05/19 10:00:22;;;;;;;;;;;;;;;-142.75;100.00;75582.25;5053643;28;19917;-68
2022/05/19 10:02:51;;;;;;;;;;;;;;;-142.75;100.00;75613.72;5053537;28;19918;-68
2022/05/19 10:05:21;;;;;;;;;;;;;;;-142.75;100.00;75621.59;5053654;28;19940;-68
2022/05/19 10:07:49;;;;;;;;;;;;;;;-142.75;100.00;75641.28;5053473;28;19956;-68
2022/05/19 10:10:24;;;;;;;;;;;;;;;-142.75;100.00;75627.50;5053271;28;20337;-68
2022/05/19 10:12:50;;;;;;;;;;;;;;;-142.75;100.00;75631.44;5053452;28;19924;-68
2022/05/19 10:15:18;;;;;;;;;;;;;;;-142.75;100.00;75625.53;5035322;28;19913;-68
2022/05/19 10:17:43;;;;;;;;;;;;;;;-142.75;100.00;75641.28;5052446;28;19912;-68
2022/05/19 10:20:08;;;;;;;;;;;;;;;-142.75;100.00;75682.59;5053131;28;19963;-68
2022/05/19 10:22:43;;;;;;;;;;;;;;;-142.75;100.00;75721.97;5053435;28;20011;-68
2022/05/19 10:25:30;;;;;;;;;;;;;;;-142.75;100.00;75743.63;5053244;28;20008;-68
2022/05/19 10:31:07;;;;;;;;;;;;;;;-142.75;100.00;75775.09;5053254;28;19920;-69
2022/05/19 10:33:35;;;;;;;;;;;;;;;-142.75;100.00;75806.59;5052823;28;19923;-68
2022/05/19 10:36:11;;;;;;;;;;;;;;;-142.75;100.00;75824.31;5053044;28;19967;-69
2022/05/19 10:38:37;;;;;;;;;;;;;;;-142.75;100.00;75840.06;5052692;28;20290;-69
2022/05/19 10:41:35;;;;;;;;;;;;;;;-142.75;100.00;75844.00;5052998;28;19920;-68
2022/05/19 10:44:19;;;;;;;;;;;;;;;-142.75;100.00;75875.47;5041542;28;19912;-69
2022/05/19 10:46:44;;;;;;;;;;;;;;;-142.75;100.00;75912.88;5051946;28;19916;-69
2022/05/19 10:49:28;;;;;;;;;;;;;;;-142.75;100.00;75930.59;5051742;28;19920;-68
2022/05/19 10:52:15;;;;;;;;;;;;;;;-142.75;100.00;75952.25;5051553;28;19917;-68
2022/05/19 10:54:59;;;;;;;;;;;;;;;-142.75;100.00;75995.53;5040418;28;19913;-68
2022/05/19 10:57:30;;;;;;;;;;;;;;;-142.75;100.00;76072.31;5036624;28;19912;-68
2022/05/19 11:00:15;;;;;;;;;;;;;;;-142.75;100.00;76158.91;5051606;28;19920;-68
2022/05/19 11:03:02;;;;;;;;;;;;;;;-142.75;100.00;76239.59;5041584;28;20001;-69
2022/05/19 11:05:46;;;;;;;;;;;;;;;-142.75;100.00;76353.78;5036955;28;19916;-69
2022/05/19 11:08:14;;;;;;;;;;;;;;;-142.75;100.00;76420.69;5031431;28;19913;-69
2022/05/19 11:10:43;;;;;;;;;;;;;;;-142.75;100.00;76444.31;5030135;28;19924;-69
2022/05/19 11:13:17;;;;;;;;;;;;;;;-142.75;100.00;76483.69;5031909;28;20393;-69
2022/05/19 11:15:44;;;;;;;;;;;;;;;-142.75;100.00;76491.56;5031760;28;19959;-69
2022/05/19 11:18:21;;;;;;;;;;;;;;;-142.75;100.00;76507.31;5013310;28;19995;-69
2022/05/19 11:20:54;;;;;;;;;;;;;;;-142.75;100.00;76515.19;5013686;28;19948;-70
2022/05/19 11:23:28;;;;;;;;;;;;;;;-142.75;100.00;76534.84;5031083;28;19917;-69
2022/05/19 11:26:27;;;;;;;;;;;;;;;-142.75;100.00;76517.16;5029620;28;19913;-70
2022/05/19 11:29:28;;;;;;;;;;;;;;;-142.75;100.00;76511.25;5031007;28;19952;-69
2022/05/19 11:32:08;;;;;;;;;;;;;;;-142.75;100.00;76521.09;4989409;28;19924;-69
2022/05/19 11:34:41;;;;;;;;;;;;;;;-142.75;100.00;76558.47;5027077;28;19913;-69
2022/05/19 11:37:16;;;;;;;;;;;;;;;-142.75;100.00;76560.44;5031484;28;19919;-70
2022/05/19 11:40:07;;;;;;;;;;;;;;;-142.75;100.00;76574.22;5031032;28;19920;-70
2022/05/19 11:42:38;;;;;;;;;;;;;;;-142.75;100.00;76578.16;5012475;28;19912;-69
2022/05/19 11:45:06;;;;;;;;;;;;;;;-142.75;100.00;76566.34;5031598;28;19919;-70
2022/05/19 11:55:54;;;;;;;;;;;;;;;-142.75;100.00;76550.59;5029279;28;19975;-69
2022/05/19 11:58:22;;;;;;;;;;;;;;;-142.75;100.00;76540.75;5028074;28;20370;-69
2022/05/19 12:00:52;;;;;;;;;;;;;;;-142.75;100.00;76538.78;5030835;28;19913;-69
2022/05/19 12:03:29;;;;;;;;;;;;;;;-142.75;100.00;76528.97;5030909;28;19982;-69
2022/05/19 12:05:54;;;;;;;;;;;;;;;-142.75;100.00;76538.78;5030494;28;20407;-70
2022/05/19 12:08:38;;;;;;;;;;;;;;;-142.75;100.00;76525.03;5029178;28;19917;-69
2022/05/19 12:11:18;;;;;;;;;;;;;;;-142.75;100.00;76523.06;5030603;28;20392;-69
2022/05/19 12:13:48;;;;;;;;;;;;;;;-142.75;100.00;76521.09;5030980;28;20383;-69
2022/05/19 12:16:14;;;;;;;;;;;;;;;-142.75;100.00;76527.00;5012483;28;19952;-69
2022/05/19 12:18:45;;;;;;;;;;;;;;;-142.75;100.00;76515.19;5028538;28;19917;-69
2022/05/19 12:21:14;;;;;;;;;;;;;;;-142.75;100.00;76503.38;5050452;28;20421;-71
2022/05/19 12:23:41;;;;;;;;;;;;;;;-142.75;100.00;76493.53;5032417;28;19958;-69
2022/05/19 12:26:12;;;;;;;;;;;;;;;-142.75;100.00;76487.63;5051085;28;19924;-69
2022/05/19 12:28:49;;;;;;;;;;;;;;;-142.75;100.00;76473.84;5050687;28;19913;-69
2022/05/19 12:34:07;;;;;;;;;;;;;;;-142.75;100.00;76460.06;5051098;28;19920;-69
2022/05/19 12:36:38;;;;;;;;;;;;;;;-142.75;100.00;76454.16;5051003;28;19912;-69
2022/05/19 12:39:26;;;;;;;;;;;;;;;-142.75;100.00;76440.38;5051976;28;19939;-69
2022/05/19 12:41:52;;;;;;;;;;;;;;;-142.75;100.00;76434.47;5049285;28;19967;-69
2022/05/19 12:44:32;;;;;;;;;;;;;;;-142.75;100.00;76428.56;5057722;28;19916;-69